Saturday, November 18, 2017, 7:10 AM EST
Back to Local

KMSS, Massena International -richards Fld

Location: Massena, NY, United States Lat: 44.933
Local Time: 7:10 AM EST (12:10 GMT) Lon: -74.85
Time Zone: US/Eastern Elev: 213 ft

Show me the last for .
Show Decoded

2017-11-18 06:53 METAR KMSS 181153Z AUTO 07007KT 10SM CLR M04/M08 A2981 RMK AO2 SLP101 T10441083
                 11044 21078 58034 =
2017-11-18 05:53 METAR KMSS 181053Z AUTO 06003KT 10SM CLR M05/M07 A2985 RMK AO2 SLP116 T10501072
                 =
2017-11-18 04:53 METAR KMSS 180953Z AUTO 06003KT 10SM SCT110 M05/M07 A2989 RMK AO2 SLP129
                 T10501067 =
2017-11-18 03:53 METAR KMSS 180853Z AUTO 08006KT 10SM BKN120 M04/M06 A2991 RMK AO2 PRESFR SLP134
                 T10441061 58034 =
2017-11-18 02:53 METAR KMSS 180753Z AUTO 11004KT 10SM BKN120 M05/M07 A2996 RMK AO2 SLP152
                 T10501067 =
2017-11-18 01:53 METAR KMSS 180653Z AUTO 00000KT 10SM CLR M07/M08 A3000 RMK AO2 SLP165 T10671078
                 =
2017-11-18 00:53 METAR KMSS 180553Z AUTO 00000KT 10SM CLR M08/M09 A3001 RMK AO2 SLP169 I1000
                 I6000 T10781089 11050 21083 58025 =
2017-11-17 23:53 METAR KMSS 180453Z AUTO 00000KT 10SM CLR M08/M09 A3003 RMK AO2 SLP177 T10781089
                 400001083 =
2017-11-17 22:53 METAR KMSS 180353Z AUTO 00000KT 10SM CLR M08/M09 A3007 RMK AO2 SLP189 T10831089
                 =
2017-11-17 21:53 METAR KMSS 180253Z AUTO 00000KT 10SM CLR M07/M08 A3008 RMK AO2 SLP195 T10721083
                 58011 =
2017-11-17 20:53 METAR KMSS 180153Z AUTO 00000KT 10SM CLR M07/M08 A3009 RMK AO2 SLP196 T10721083
                 =
2017-11-17 19:53 METAR KMSS 180053Z AUTO 00000KT 10SM CLR M06/M08 A3012 RMK AO2 SLP206 T10561083
                 =
2017-11-17 18:53 METAR KMSS 172353Z AUTO 00000KT 10SM CLR M05/M08 A3012 RMK AO2 SLP206 T10501078
                 11006 21061 58008 =
2017-11-17 17:53 METAR KMSS 172253Z AUTO 24003KT 10SM CLR M03/M09 A3015 RMK AO2 SLP217 T10281094
                 =
2017-11-17 16:53 METAR KMSS 172153Z AUTO 26003KT 10SM CLR M02/M09 A3013 RMK AO2 SLP210 T10221094
                 =
2017-11-17 15:53 METAR KMSS 172053Z AUTO 27011KT 10SM CLR M01/M09 A3014 RMK AO2 SLP213 T10111094
                 55002 =
2017-11-17 14:53 METAR KMSS 171953Z AUTO 28012KT 10SM CLR M01/M09 A3014 RMK AO2 SLP212 T10061089
                 =
2017-11-17 13:53 METAR KMSS 171853Z AUTO 26012KT 230V290 10SM CLR M01/M09 A3014 RMK AO2 SLP212
                 T10111089 =
2017-11-17 12:53 METAR KMSS 171753Z AUTO 28012G21KT 10SM CLR M01/M08 A3015 RMK AO2 SLP215
                 T10111083 11011 21033 58008 =
2017-11-17 11:53 METAR KMSS 171653Z AUTO 26010G16KT 10SM SCT027 M02/M08 A3016 RMK AO2 SLP219
                 T10171078 =
2017-11-17 11:19 METAR KMSS 171619Z AUTO 29009KT 10SM SCT025 M02/M08 A3016 RMK AO2 T10221083 =
2017-11-17 10:53 METAR KMSS 171553Z AUTO 26011KT 10SM OVC026 M03/M08 A3018 RMK AO2 SLP226
                 T10281083 =
2017-11-17 09:53 METAR KMSS 171453Z AUTO 27013KT 10SM OVC023 M03/M08 A3017 RMK AO2 SLP223
                 T10331083 50012 =
2017-11-17 08:53 METAR KMSS 171353Z AUTO 29012KT 10SM OVC023 M03/M07 A3017 RMK AO2 SLP224
                 T10281072 =
2017-11-17 07:53 METAR KMSS 171253Z AUTO 28013KT 10SM OVC023 M03/M07 A3016 RMK AO2 SLP221
                 T10281067 =

Support USWX by starting your Amazon purchase here.